createdAt,value
2023-04-29T00:01:04.176Z,2.22
2023-04-29T00:03:32.625Z,2.53
2023-04-29T00:06:00.300Z,2.28
2023-04-29T00:08:27.286Z,2.17
2023-04-29T00:10:54.094Z,2.25
2023-04-29T00:13:21.227Z,2.45
2023-04-29T00:15:48.090Z,2.25
2023-04-29T00:18:14.711Z,2.45
2023-04-29T00:20:42.199Z,2.30
2023-04-29T00:23:09.129Z,2.42
2023-04-29T00:25:36.057Z,2.28
2023-04-29T00:28:03.402Z,2.47
2023-04-29T00:30:30.974Z,2.22
2023-04-29T00:32:57.712Z,2.40
2023-04-29T00:35:24.388Z,2.28
2023-04-29T00:37:51.022Z,2.03
2023-04-29T00:40:17.807Z,2.03
2023-04-29T00:42:44.649Z,2.42
2023-04-29T00:45:11.831Z,2.20
2023-04-29T00:47:38.909Z,2.50
2023-04-29T00:50:07.616Z,2.05
2023-04-29T00:52:34.699Z,2.47
2023-04-29T00:55:02.613Z,2.05
2023-04-29T00:57:30.020Z,2.20
2023-04-29T00:59:58.770Z,2.33
2023-04-29T01:02:26.602Z,2.30
2023-04-29T01:04:53.536Z,2.30
2023-04-29T01:07:50.983Z,2.17
2023-04-29T01:10:28.670Z,1.92
2023-04-29T01:13:01.897Z,2.10
2023-04-29T01:15:51.043Z,2.17
2023-04-29T01:18:48.178Z,2.30
2023-04-29T01:21:15.581Z,1.80
2023-04-29T01:23:42.221Z,2.00
2023-04-29T01:26:09.137Z,1.95
2023-04-29T01:29:02.115Z,2.00
2023-04-29T01:31:36.702Z,2.28
2023-04-29T01:34:11.733Z,2.00
2023-04-29T01:36:57.374Z,1.92
2023-04-29T01:39:36.016Z,2.10
2023-04-29T01:42:17.590Z,1.83
2023-04-29T01:44:45.004Z,1.90
2023-04-29T01:47:14.944Z,1.73
2023-04-29T01:49:41.631Z,1.67
2023-04-29T01:52:08.250Z,1.65
2023-04-29T01:54:36.463Z,2.28
2023-04-29T01:57:03.560Z,2.00
2023-04-29T01:59:31.738Z,1.90
2023-04-29T02:01:58.936Z,1.85
2023-04-29T02:04:26.319Z,1.70
2023-04-29T02:06:52.951Z,1.80
2023-04-29T02:09:20.110Z,1.80
2023-04-29T02:11:46.762Z,1.88
2023-04-29T02:14:14.101Z,1.98
2023-04-29T02:16:40.825Z,1.73
2023-04-29T02:19:07.489Z,1.67
2023-04-29T02:21:35.152Z,1.80
2023-04-29T02:24:02.448Z,1.65
2023-04-29T02:26:29.133Z,1.63
2023-04-29T02:28:57.234Z,1.80
2023-04-29T02:31:23.935Z,1.65
2023-04-29T02:33:50.719Z,1.60
2023-04-29T02:36:18.233Z,1.75
2023-04-29T02:38:44.830Z,1.65
2023-04-29T02:41:19.086Z,1.90
2023-04-29T02:43:45.711Z,1.27
2023-04-29T02:46:12.625Z,1.50
2023-04-29T02:48:39.289Z,1.55
2023-04-29T02:51:06.623Z,1.30
2023-04-29T02:53:33.424Z,1.77
2023-04-29T02:56:00.116Z,1.75
2023-04-29T02:58:26.792Z,1.90
2023-04-29T03:00:53.517Z,1.50
2023-04-29T03:03:20.335Z,1.50
2023-04-29T03:05:47.139Z,1.67
2023-04-29T03:08:13.785Z,1.50
2023-04-29T03:10:41.697Z,1.60
2023-04-29T03:13:08.613Z,1.50
2023-04-29T03:15:35.390Z,1.60
2023-04-29T03:18:03.994Z,1.48
2023-04-29T03:20:30.752Z,1.58
2023-04-29T03:22:57.802Z,1.60
2023-04-29T03:25:24.551Z,1.60
2023-04-29T03:27:51.525Z,1.80
2023-04-29T03:30:18.193Z,1.63
2023-04-29T03:32:44.811Z,1.85
2023-04-29T03:35:14.166Z,1.50
2023-04-29T03:37:44.373Z,1.48
2023-04-29T03:40:11.988Z,1.58
2023-04-29T03:42:38.688Z,1.23
2023-04-29T03:45:06.373Z,1.55
2023-04-29T03:47:33.073Z,1.55
2023-04-29T03:49:59.774Z,1.50
2023-04-29T03:52:26.796Z,1.45
2023-04-29T03:54:53.430Z,1.70
2023-04-29T03:57:20.038Z,1.40
2023-04-29T03:59:50.262Z,1.40
2023-04-29T04:02:17.169Z,1.55
2023-04-29T04:04:44.306Z,1.40
2023-04-29T04:07:11.631Z,1.45
2023-04-29T04:09:38.498Z,1.40
2023-04-29T04:12:06.190Z,1.42
2023-04-29T04:14:32.840Z,1.23
2023-04-29T04:16:59.482Z,1.30
2023-04-29T04:19:27.100Z,1.73
2023-04-29T04:21:53.923Z,1.63
2023-04-29T04:24:20.803Z,1.58
2023-04-29T04:26:47.405Z,1.30
2023-04-29T04:29:14.165Z,1.40
2023-04-29T04:31:41.507Z,1.38
2023-04-29T04:34:08.167Z,1.20
2023-04-29T04:36:34.819Z,1.33
2023-04-29T04:39:01.526Z,1.48
2023-04-29T04:41:31.424Z,1.38
2023-04-29T04:43:58.344Z,1.25
2023-04-29T04:46:25.050Z,1.60
2023-04-29T04:48:51.675Z,1.83
2023-04-29T04:51:18.332Z,1.40
2023-04-29T04:53:45.035Z,1.20
2023-04-29T04:56:11.740Z,1.42
2023-04-29T04:58:38.421Z,1.50
2023-04-29T05:01:05.215Z,1.50
2023-04-29T05:03:32.073Z,1.20
2023-04-29T05:06:00.202Z,1.20
2023-04-29T05:08:27.071Z,1.67
2023-04-29T05:10:54.466Z,1.40
2023-04-29T05:13:21.165Z,1.33
2023-04-29T05:15:47.985Z,1.60
2023-04-29T05:18:14.601Z,1.33
2023-04-29T05:20:41.288Z,1.80
2023-04-29T05:23:08.802Z,1.70
2023-04-29T05:25:35.856Z,1.50
2023-04-29T05:28:04.428Z,1.50
2023-04-29T05:30:31.278Z,1.30
2023-04-29T05:32:58.775Z,1.23
2023-04-29T05:35:25.588Z,1.63
2023-04-29T05:37:52.212Z,1.63
2023-04-29T05:40:19.031Z,1.50
2023-04-29T05:42:45.714Z,1.45
2023-04-29T05:45:12.560Z,1.23
2023-04-29T05:47:39.270Z,1.35
2023-04-29T05:50:06.450Z,1.40
2023-04-29T05:52:33.029Z,1.20
2023-04-29T05:54:59.682Z,1.10
2023-04-29T05:57:26.475Z,1.20
2023-04-29T05:59:55.207Z,1.40
2023-04-29T06:02:22.382Z,1.20
2023-04-29T06:04:49.442Z,1.40
2023-04-29T06:07:18.873Z,1.42
2023-04-29T06:09:46.873Z,1.30
2023-04-29T06:12:13.518Z,1.33
2023-04-29T06:14:40.327Z,1.38
2023-04-29T06:17:06.977Z,1.40
2023-04-29T06:19:33.944Z,1.42
2023-04-29T06:22:00.718Z,1.50
2023-04-29T06:24:27.321Z,1.23
2023-04-29T06:26:53.969Z,1.20
2023-04-29T06:29:20.596Z,1.20
2023-04-29T06:31:47.367Z,1.17
2023-04-29T06:34:14.090Z,1.20
2023-04-29T06:36:41.510Z,1.38
2023-04-29T06:39:08.275Z,1.30
2023-04-29T06:41:35.003Z,1.30
2023-04-29T06:44:01.676Z,1.20
2023-04-29T06:46:29.245Z,1.13
2023-04-29T06:48:55.989Z,1.00
2023-04-29T06:51:22.692Z,1.20
2023-04-29T06:53:49.276Z,1.50
2023-04-29T06:56:17.202Z,1.13
2023-04-29T06:58:44.040Z,1.40
2023-04-29T07:01:10.919Z,1.20
2023-04-29T07:03:38.377Z,1.15
2023-04-29T07:06:05.172Z,1.20
2023-04-29T07:08:32.269Z,1.40
2023-04-29T07:10:59.321Z,1.30
2023-04-29T07:13:26.260Z,1.02
2023-04-29T07:15:52.981Z,1.10
2023-04-29T07:18:19.684Z,1.00
2023-04-29T07:20:47.848Z,1.05
2023-04-29T07:23:15.177Z,1.10
2023-04-29T07:25:41.933Z,1.05
2023-04-29T07:28:11.729Z,1.25
2023-04-29T07:30:38.519Z,1.00
2023-04-29T07:33:05.272Z,1.55
2023-04-29T07:35:31.899Z,1.30
2023-04-29T07:37:58.519Z,1.27
2023-04-29T07:40:25.296Z,1.10
2023-04-29T07:42:51.976Z,1.00
2023-04-29T07:45:18.662Z,1.10
2023-04-29T07:47:45.863Z,0.95
2023-04-29T07:50:12.929Z,1.45
2023-04-29T07:52:39.635Z,1.08
2023-04-29T07:55:06.638Z,0.98
2023-04-29T07:57:33.273Z,1.30
2023-04-29T07:59:59.956Z,1.10
2023-04-29T08:02:27.082Z,0.95
2023-04-29T08:04:56.153Z,1.00
2023-04-29T08:07:23.313Z,0.93
2023-04-29T08:09:49.948Z,1.13
2023-04-29T08:12:16.598Z,0.85
2023-04-29T08:14:43.212Z,1.00
2023-04-29T08:17:09.985Z,1.05
2023-04-29T08:19:36.587Z,1.10
2023-04-29T08:22:04.279Z,1.10
2023-04-29T08:24:31.136Z,1.13
2023-04-29T08:26:59.150Z,1.10
2023-04-29T08:29:26.178Z,0.80
2023-04-29T08:31:53.026Z,0.90
2023-04-29T08:34:19.771Z,1.08
2023-04-29T08:36:46.444Z,1.00
2023-04-29T08:39:13.119Z,0.73
2023-04-29T08:41:39.776Z,0.93
2023-04-29T08:44:06.964Z,0.98
2023-04-29T08:46:33.783Z,1.20
2023-04-29T08:49:03.917Z,1.00
2023-04-29T08:51:32.255Z,0.95
2023-04-29T08:53:59.034Z,1.30
2023-04-29T08:56:28.062Z,1.20
2023-04-29T08:58:58.111Z,1.10
2023-04-29T09:01:28.946Z,0.80
2023-04-29T09:04:14.376Z,1.00
2023-04-29T09:06:41.176Z,1.20
2023-04-29T09:09:08.471Z,1.10
2023-04-29T09:11:37.005Z,1.00
2023-04-29T09:14:08.173Z,1.10
2023-04-29T09:16:37.290Z,1.00
2023-04-29T09:19:04.036Z,1.00
2023-04-29T09:21:33.763Z,0.80
2023-04-29T09:24:02.325Z,0.95
2023-04-29T09:26:41.535Z,0.90
2023-04-29T09:29:09.969Z,1.00
2023-04-29T09:31:39.201Z,0.98
2023-04-29T09:34:06.185Z,1.08
2023-04-29T09:36:46.214Z,0.80
2023-04-29T09:39:22.097Z,0.98
2023-04-29T09:41:54.491Z,0.98
2023-04-29T09:44:23.342Z,0.80
2023-04-29T09:46:57.087Z,1.10
2023-04-29T09:49:28.407Z,0.90
2023-04-29T09:52:00.228Z,0.90
2023-04-29T09:54:29.094Z,0.82
2023-04-29T09:56:57.227Z,0.70
2023-04-29T09:59:24.820Z,1.10
2023-04-29T10:01:56.872Z,1.08
2023-04-29T10:04:26.236Z,0.90
2023-04-29T10:06:54.591Z,1.13
2023-04-29T10:09:23.117Z,1.00
2023-04-29T10:11:51.531Z,1.10
2023-04-29T10:14:28.321Z,0.98
2023-04-29T10:17:08.427Z,1.00
2023-04-29T10:19:41.604Z,1.10
2023-04-29T10:22:12.478Z,1.00
2023-04-29T10:24:40.022Z,0.90
2023-04-29T10:27:08.906Z,1.00
2023-04-29T10:29:38.252Z,1.20
2023-04-29T10:32:09.769Z,1.02
2023-04-29T10:34:39.557Z,1.00
2023-04-29T10:37:11.263Z,1.05
2023-04-29T10:40:10.815Z,1.05
2023-04-29T10:42:44.276Z,1.02
2023-04-29T10:45:24.207Z,1.00
2023-04-29T10:48:03.111Z,1.10
2023-04-29T10:50:31.280Z,0.90
2023-04-29T10:52:58.765Z,1.10
2023-04-29T10:55:25.872Z,1.10
2023-04-29T10:57:56.980Z,1.10
2023-04-29T11:00:31.797Z,1.10
2023-04-29T11:03:00.578Z,1.10
2023-04-29T11:05:34.329Z,0.80
2023-04-29T11:08:24.312Z,1.15
2023-04-29T11:11:00.475Z,1.27
2023-04-29T11:13:29.928Z,1.25
2023-04-29T11:16:06.398Z,1.10
2023-04-29T11:18:34.823Z,1.40
2023-04-29T11:21:04.365Z,0.98
2023-04-29T11:23:31.918Z,1.00
2023-04-29T11:25:58.505Z,1.17
2023-04-29T11:28:27.088Z,1.10
2023-04-29T11:30:54.064Z,1.02
2023-04-29T11:33:20.687Z,1.27
2023-04-29T11:35:47.336Z,1.33
2023-04-29T11:38:14.057Z,1.17
2023-04-29T11:40:59.948Z,1.52
2023-04-29T11:43:26.784Z,1.25
2023-04-29T11:45:53.979Z,1.20
2023-04-29T11:48:26.294Z,1.58
2023-04-29T11:50:56.919Z,1.17
2023-04-29T11:53:26.890Z,1.30
2023-04-29T11:55:54.309Z,1.40
2023-04-29T11:58:22.366Z,1.17
2023-04-29T12:00:49.206Z,1.30
2023-04-29T12:03:16.941Z,1.10
2023-04-29T12:05:47.861Z,1.30
2023-04-29T12:08:14.767Z,1.30
2023-04-29T12:10:41.458Z,1.40
2023-04-29T12:13:10.226Z,1.30
2023-04-29T12:15:38.398Z,1.20
2023-04-29T12:18:07.163Z,1.40
2023-04-29T12:20:33.997Z,1.40
2023-04-29T12:23:18.919Z,1.50
2023-04-29T12:26:00.111Z,1.50
2023-04-29T12:28:27.239Z,1.55
2023-04-29T12:30:54.740Z,1.98
2023-04-29T12:33:23.555Z,1.90
2023-04-29T12:35:57.467Z,1.80
2023-04-29T12:38:31.206Z,1.75
2023-04-29T12:41:05.421Z,1.50
2023-04-29T12:43:36.584Z,1.27
2023-04-29T12:46:08.064Z,1.03
2023-04-29T12:48:39.214Z,1.52
2023-04-29T12:51:08.341Z,1.47
2023-04-29T12:53:35.042Z,1.30
2023-04-29T12:56:02.358Z,1.40
2023-04-29T12:58:30.462Z,1.30
2023-04-29T13:00:57.824Z,1.25
2023-04-29T13:03:24.919Z,1.10
2023-04-29T13:05:53.640Z,1.75
2023-04-29T13:08:21.118Z,1.40
2023-04-29T13:10:47.744Z,1.40
2023-04-29T13:13:14.466Z,1.42
2023-04-29T13:15:41.260Z,1.13
2023-04-29T13:18:08.004Z,1.27
2023-04-29T13:20:40.812Z,1.67
2023-04-29T13:23:09.344Z,1.50
2023-04-29T13:25:36.131Z,1.55
2023-04-29T13:28:03.072Z,1.33
2023-04-29T13:30:29.726Z,1.35
2023-04-29T13:33:00.524Z,1.30
2023-04-29T13:35:36.410Z,1.38
2023-04-29T13:38:03.055Z,1.40
2023-04-29T13:40:29.735Z,1.30
2023-04-29T13:43:04.380Z,1.25
2023-04-29T13:45:38.788Z,1.45
2023-04-29T13:48:17.004Z,1.50
2023-04-29T13:53:46.242Z,1.55
2023-04-29T13:59:19.782Z,1.20
2023-04-29T14:02:14.764Z,1.50
2023-04-29T14:04:11.986Z,1.42
2023-04-29T14:06:38.848Z,1.35
2023-04-29T14:09:05.962Z,1.50
2023-04-29T14:11:36.534Z,1.30
2023-04-29T14:14:03.710Z,1.30
2023-04-29T14:16:30.718Z,1.13
2023-04-29T14:18:57.580Z,1.40
2023-04-29T14:21:24.285Z,1.20
2023-04-29T14:23:51.127Z,1.20
2023-04-29T14:26:27.908Z,1.30
2023-04-29T14:28:59.341Z,1.20
2023-04-29T14:31:31.068Z,1.30
2023-04-29T14:33:58.419Z,1.35
2023-04-29T14:36:26.520Z,1.40
2023-04-29T14:38:53.174Z,1.33
2023-04-29T14:41:21.455Z,1.38
2023-04-29T14:43:48.136Z,1.48
2023-04-29T14:46:15.013Z,1.48
2023-04-29T14:48:41.808Z,1.25
2023-04-29T14:51:08.630Z,1.40
2023-04-29T14:53:35.392Z,1.40
2023-04-29T14:56:02.248Z,1.20
2023-04-29T14:58:29.081Z,1.38
2023-04-29T15:00:56.185Z,1.38
2023-04-29T15:03:23.572Z,1.50
2023-04-29T15:05:51.404Z,1.42
2023-04-29T15:08:19.072Z,1.38
2023-04-29T15:10:47.281Z,1.35
2023-04-29T15:13:14.061Z,1.30
2023-04-29T15:15:40.699Z,1.50
2023-04-29T15:18:08.741Z,1.33
2023-04-29T15:20:36.885Z,1.42
2023-04-29T15:23:04.471Z,1.30
2023-04-29T15:25:33.430Z,1.45
2023-04-29T15:28:01.173Z,1.50
2023-04-29T15:30:27.923Z,1.45
2023-04-29T15:32:57.824Z,1.30
2023-04-29T15:35:24.451Z,1.27
2023-04-29T15:37:51.090Z,1.20
2023-04-29T15:40:17.846Z,1.33
2023-04-29T15:42:44.620Z,1.48
2023-04-29T15:45:11.643Z,1.30
2023-04-29T15:47:38.462Z,1.23
2023-04-29T15:50:05.814Z,1.40
2023-04-29T15:52:32.453Z,1.33
2023-04-29T15:54:59.238Z,1.40
2023-04-29T15:57:26.094Z,1.33
2023-04-29T15:59:53.180Z,1.70
2023-04-29T16:02:21.015Z,1.20
2023-04-29T16:04:47.863Z,1.13
2023-04-29T16:07:14.567Z,1.30
2023-04-29T16:09:42.394Z,1.30
2023-04-29T16:12:11.493Z,1.45
2023-04-29T16:14:38.178Z,1.50
2023-04-29T16:17:05.963Z,1.50
2023-04-29T16:19:34.516Z,1.20
2023-04-29T16:22:03.497Z,1.25
2023-04-29T16:24:30.345Z,1.33
2023-04-29T16:26:57.282Z,1.40
2023-04-29T16:29:23.946Z,1.60
2023-04-29T16:31:50.849Z,1.30
2023-04-29T16:34:17.648Z,1.30
2023-04-29T16:36:44.297Z,1.42
2023-04-29T16:39:10.954Z,1.33
2023-04-29T16:41:37.652Z,1.20
2023-04-29T16:44:04.670Z,1.25
2023-04-29T16:46:32.550Z,1.20
2023-04-29T16:48:59.399Z,1.45
2023-04-29T16:51:26.206Z,1.20
2023-04-29T16:53:53.393Z,1.33
2023-04-29T16:56:21.608Z,1.30
2023-04-29T16:58:48.706Z,1.25
2023-04-29T17:01:15.738Z,1.30
2023-04-29T17:03:42.448Z,1.30
2023-04-29T17:06:09.155Z,1.48
2023-04-29T17:08:35.818Z,1.42
2023-04-29T17:11:04.664Z,1.40
2023-04-29T17:13:31.525Z,1.20
2023-04-29T17:15:58.257Z,1.23
2023-04-29T17:18:24.951Z,1.42
2023-04-29T17:20:51.596Z,1.30
2023-04-29T17:23:18.346Z,1.33
2023-04-29T17:25:45.141Z,1.27
2023-04-29T17:28:11.787Z,1.23
2023-04-29T17:30:38.415Z,1.30
2023-04-29T17:33:08.733Z,1.40
2023-04-29T17:35:35.516Z,1.50
2023-04-29T17:38:02.189Z,1.45
2023-04-29T17:40:28.842Z,1.25
2023-04-29T17:42:55.633Z,1.30
2023-04-29T17:45:22.356Z,1.50
2023-04-29T17:47:49.001Z,1.48
2023-04-29T17:50:15.682Z,1.58
2023-04-29T17:52:43.088Z,1.38
2023-04-29T17:55:10.363Z,1.73
2023-04-29T17:57:38.172Z,1.65
2023-04-29T18:00:07.291Z,2.13
2023-04-29T18:02:34.488Z,2.58
2023-04-29T18:05:03.360Z,2.00
2023-04-29T18:07:30.065Z,2.13
2023-04-29T18:09:57.221Z,2.42
2023-04-29T18:12:24.946Z,2.00
2023-04-29T18:14:52.007Z,2.72
2023-04-29T18:17:19.155Z,2.80
2023-04-29T18:19:49.585Z,2.60
2023-04-29T18:22:16.671Z,2.65
2023-04-29T18:24:43.593Z,2.53
2023-04-29T18:27:10.388Z,2.50
2023-04-29T18:29:37.091Z,2.22
2023-04-29T18:32:05.704Z,2.50
2023-04-29T18:34:34.033Z,2.53
2023-04-29T18:37:01.409Z,2.17
2023-04-29T18:39:28.042Z,2.33
2023-04-29T18:41:54.637Z,2.30
2023-04-29T18:44:21.369Z,2.35
2023-04-29T18:46:48.047Z,2.25
2023-04-29T18:49:16.820Z,2.70
2023-04-29T18:51:46.954Z,2.83
2023-04-29T18:54:19.849Z,2.50
2023-04-29T18:56:48.067Z,2.30
2023-04-29T18:59:20.946Z,2.83
2023-04-29T19:01:49.141Z,3.00
2023-04-29T19:04:16.464Z,2.65
2023-04-29T19:06:43.551Z,2.92
2023-04-29T19:09:14.384Z,2.40
2023-04-29T19:11:41.052Z,3.03
2023-04-29T19:14:07.761Z,2.80
2023-04-29T19:16:36.911Z,2.65
2023-04-29T19:19:04.295Z,2.95
2023-04-29T19:21:33.061Z,2.67
2023-04-29T19:23:59.987Z,3.10
2023-04-29T19:26:26.655Z,2.78
2023-04-29T19:28:53.330Z,2.60
2023-04-29T19:31:20.048Z,2.60
2023-04-29T19:33:46.748Z,2.70
2023-04-29T19:36:14.385Z,2.90
2023-04-29T19:38:41.083Z,2.22
2023-04-29T19:41:07.727Z,2.58
2023-04-29T19:43:34.494Z,2.40
2023-04-29T19:46:01.237Z,2.67
2023-04-29T19:48:27.832Z,2.60
2023-04-29T19:50:54.533Z,2.30
2023-04-29T19:53:21.275Z,2.50
2023-04-29T19:55:50.512Z,2.40
2023-04-29T19:58:18.226Z,2.67
2023-04-29T20:00:44.940Z,2.40
2023-04-29T20:03:12.540Z,2.40
2023-04-29T20:05:39.990Z,2.40
2023-04-29T20:08:07.120Z,2.55
2023-04-29T20:10:33.883Z,2.60
2023-04-29T20:13:01.026Z,2.38
2023-04-29T20:15:27.743Z,2.80
2023-04-29T20:17:55.630Z,2.45
2023-04-29T20:20:22.335Z,2.25
2023-04-29T20:22:49.034Z,2.58
2023-04-29T20:25:15.821Z,2.38
2023-04-29T20:27:43.553Z,2.10
2023-04-29T20:30:10.426Z,2.50
2023-04-29T20:32:37.863Z,2.20
2023-04-29T20:35:05.559Z,2.28
2023-04-29T20:37:32.168Z,2.45
2023-04-29T20:39:58.894Z,2.17
2023-04-29T20:42:25.556Z,2.40
2023-04-29T20:44:52.246Z,2.13
2023-04-29T20:47:19.001Z,2.40
2023-04-29T20:49:45.623Z,2.28
2023-04-29T20:52:12.298Z,2.10
2023-04-29T20:54:38.961Z,2.10
2023-04-29T20:57:05.722Z,2.22
2023-04-29T20:59:35.507Z,2.50
2023-04-29T21:02:02.239Z,2.45
2023-04-29T21:04:28.912Z,2.30
2023-04-29T21:06:55.589Z,2.30
2023-04-29T21:09:22.306Z,2.10
2023-04-29T21:11:48.925Z,2.13
2023-04-29T21:14:15.695Z,2.10
2023-04-29T21:16:42.745Z,2.13
2023-04-29T21:19:09.885Z,2.30
2023-04-29T21:21:36.488Z,1.98
2023-04-29T21:24:03.359Z,2.20
2023-04-29T21:26:30.050Z,2.25
2023-04-29T21:28:56.645Z,1.90
2023-04-29T21:31:23.281Z,2.47
2023-04-29T21:33:50.093Z,2.10
2023-04-29T21:36:16.843Z,2.30
2023-04-29T21:38:43.511Z,2.17
2023-04-29T21:41:30.787Z,2.13
2023-04-29T21:43:58.593Z,2.50
2023-04-29T21:46:27.911Z,2.17
2023-04-29T21:48:57.229Z,2.00
2023-04-29T21:51:24.203Z,2.00
2023-04-29T21:53:51.231Z,2.20
2023-04-29T21:56:18.194Z,2.10
2023-04-29T21:58:44.825Z,2.25
2023-04-29T22:01:27.682Z,1.90
2023-04-29T22:03:55.846Z,2.20
2023-04-29T22:06:23.438Z,2.03
2023-04-29T22:08:50.447Z,2.00
2023-04-29T22:11:19.559Z,1.92
2023-04-29T22:13:46.196Z,1.98
2023-04-29T22:16:12.869Z,2.10
2023-04-29T22:18:39.522Z,2.03
2023-04-29T22:21:07.346Z,2.03
2023-04-29T22:23:34.098Z,1.88
2023-04-29T22:26:00.773Z,1.95
2023-04-29T22:28:27.437Z,1.90
2023-04-29T22:30:54.485Z,2.17
2023-04-29T22:33:21.167Z,1.80
2023-04-29T22:35:47.810Z,2.10
2023-04-29T22:38:14.495Z,2.00
2023-04-29T22:40:41.153Z,1.90
2023-04-29T22:43:07.834Z,1.95
2023-04-29T22:45:34.494Z,2.05
2023-04-29T22:48:01.097Z,1.98
2023-04-29T22:50:27.827Z,2.10
2023-04-29T22:52:54.516Z,2.33
2023-04-29T22:55:21.764Z,1.92
2023-04-29T22:57:53.038Z,1.77
2023-04-29T23:00:19.797Z,2.20
2023-04-29T23:02:46.523Z,2.40
2023-04-29T23:05:13.194Z,2.25
2023-04-29T23:07:39.770Z,2.45
2023-04-29T23:10:06.682Z,2.60
2023-04-29T23:12:33.281Z,2.38
2023-04-29T23:14:59.848Z,2.35
2023-04-29T23:17:26.525Z,2.63
2023-04-29T23:19:53.245Z,2.20
2023-04-29T23:22:19.960Z,2.55
2023-04-29T23:24:46.602Z,2.22
2023-04-29T23:27:13.186Z,2.33
2023-04-29T23:29:41.368Z,2.00
2023-04-29T23:32:08.061Z,2.08
2023-04-29T23:34:34.649Z,2.35
2023-04-29T23:37:01.305Z,2.25
2023-04-29T23:39:28.037Z,2.00
2023-04-29T23:41:54.686Z,2.10
2023-04-29T23:44:21.532Z,2.38
2023-04-29T23:46:48.309Z,2.15
2023-04-29T23:49:14.953Z,2.20
2023-04-29T23:51:41.553Z,2.35
2023-04-29T23:54:08.153Z,1.95
2023-04-29T23:56:34.733Z,2.20
2023-04-29T23:59:01.320Z,2.30
